sensor_id;sensor_type;location;lat;lon;timestamp;temperature;humidity
7846;DHT22;3968;51.424;6.788;2023-08-06T00:02:19;16.10;99.90
7846;DHT22;3968;51.424;6.788;2023-08-06T00:04:45;16.20;99.90
7846;DHT22;3968;51.424;6.788;2023-08-06T00:07:11;16.10;99.90
7846;DHT22;3968;51.424;6.788;2023-08-06T00:09:36;16.10;99.90
7846;DHT22;3968;51.424;6.788;2023-08-06T00:12:02;16.20;99.90
7846;DHT22;3968;51.424;6.788;2023-08-06T00:14:28;16.10;99.90
7846;DHT22;3968;51.424;6.788;2023-08-06T00:16:53;16.20;99.90
7846;DHT22;3968;51.424;6.788;2023-08-06T00:19:19;16.10;99.90
7846;DHT22;3968;51.424;6.788;2023-08-06T00:21:44;16.10;99.90
7846;DHT22;3968;51.424;6.788;2023-08-06T00:24:10;16.10;99.90
7846;DHT22;3968;51.424;6.788;2023-08-06T00:26:36;16.10;99.90
7846;DHT22;3968;51.424;6.788;2023-08-06T00:29:01;16.10;99.90
7846;DHT22;3968;51.424;6.788;2023-08-06T00:31:27;16.10;99.90
7846;DHT22;3968;51.424;6.788;2023-08-06T00:33:52;16.10;99.90
7846;DHT22;3968;51.424;6.788;2023-08-06T00:36:18;16.10;99.90
7846;DHT22;3968;51.424;6.788;2023-08-06T00:38:43;16.10;99.90
7846;DHT22;3968;51.424;6.788;2023-08-06T00:41:09;16.10;99.90
7846;DHT22;3968;51.424;6.788;2023-08-06T00:43:35;16.10;99.90
7846;DHT22;3968;51.424;6.788;2023-08-06T00:46:00;16.10;99.90
7846;DHT22;3968;51.424;6.788;2023-08-06T00:48:26;16.00;99.90
7846;DHT22;3968;51.424;6.788;2023-08-06T00:50:52;16.10;99.90
7846;DHT22;3968;51.424;6.788;2023-08-06T00:53:18;16.10;99.90
7846;DHT22;3968;51.424;6.788;2023-08-06T00:55:44;16.10;99.90
7846;DHT22;3968;51.424;6.788;2023-08-06T00:58:11;16.00;99.90
7846;DHT22;3968;51.424;6.788;2023-08-06T01:00:37;16.10;99.90
7846;DHT22;3968;51.424;6.788;2023-08-06T01:03:03;16.10;99.90
7846;DHT22;3968;51.424;6.788;2023-08-06T01:05:29;16.00;99.90
7846;DHT22;3968;51.424;6.788;2023-08-06T01:13:42;16.00;99.90
7846;DHT22;3968;51.424;6.788;2023-08-06T01:16:09;16.10;99.90
7846;DHT22;3968;51.424;6.788;2023-08-06T01:18:35;16.00;99.90
7846;DHT22;3968;51.424;6.788;2023-08-06T01:21:02;16.00;99.90
7846;DHT22;3968;51.424;6.788;2023-08-06T01:23:28;16.00;99.90
7846;DHT22;3968;51.424;6.788;2023-08-06T01:29:11;16.10;99.90
7846;DHT22;3968;51.424;6.788;2023-08-06T01:31:39;16.00;99.90
7846;DHT22;3968;51.424;6.788;2023-08-06T01:34:10;16.10;99.90
7846;DHT22;3968;51.424;6.788;2023-08-06T01:36:39;16.00;99.90
7846;DHT22;3968;51.424;6.788;2023-08-06T01:39:05;16.00;99.90
7846;DHT22;3968;51.424;6.788;2023-08-06T01:41:30;16.10;99.90
7846;DHT22;3968;51.424;6.788;2023-08-06T01:43:56;16.10;99.90
7846;DHT22;3968;51.424;6.788;2023-08-06T01:46:22;16.10;99.90
7846;DHT22;3968;51.424;6.788;2023-08-06T01:48:47;16.10;99.90
7846;DHT22;3968;51.424;6.788;2023-08-06T01:51:13;16.00;99.90
7846;DHT22;3968;51.424;6.788;2023-08-06T01:53:38;16.10;99.90
7846;DHT22;3968;51.424;6.788;2023-08-06T01:56:04;16.00;99.90
7846;DHT22;3968;51.424;6.788;2023-08-06T01:58:30;16.00;99.90
7846;DHT22;3968;51.424;6.788;2023-08-06T02:00:55;16.10;99.90
7846;DHT22;3968;51.424;6.788;2023-08-06T02:03:21;16.00;99.90
7846;DHT22;3968;51.424;6.788;2023-08-06T02:05:46;16.00;99.90
7846;DHT22;3968;51.424;6.788;2023-08-06T02:08:12;16.00;99.90
7846;DHT22;3968;51.424;6.788;2023-08-06T02:10:37;16.10;99.90
7846;DHT22;3968;51.424;6.788;2023-08-06T02:13:03;16.00;99.90
7846;DHT22;3968;51.424;6.788;2023-08-06T02:15:29;16.10;99.90
7846;DHT22;3968;51.424;6.788;2023-08-06T02:17:55;16.10;99.90
7846;DHT22;3968;51.424;6.788;2023-08-06T02:20:20;16.10;99.90
7846;DHT22;3968;51.424;6.788;2023-08-06T02:22:46;16.00;99.90
7846;DHT22;3968;51.424;6.788;2023-08-06T02:25:12;16.10;99.90
7846;DHT22;3968;51.424;6.788;2023-08-06T02:27:37;16.10;99.90
7846;DHT22;3968;51.424;6.788;2023-08-06T02:30:04;16.00;99.90
7846;DHT22;3968;51.424;6.788;2023-08-06T02:32:30;15.90;99.90
7846;DHT22;3968;51.424;6.788;2023-08-06T02:34:57;16.00;99.90
7846;DHT22;3968;51.424;6.788;2023-08-06T02:37:22;16.00;99.90
7846;DHT22;3968;51.424;6.788;2023-08-06T02:39:48;16.00;99.90
7846;DHT22;3968;51.424;6.788;2023-08-06T02:42:13;16.00;99.90
7846;DHT22;3968;51.424;6.788;2023-08-06T02:44:39;15.90;99.90
7846;DHT22;3968;51.424;6.788;2023-08-06T02:47:05;15.90;99.90
7846;DHT22;3968;51.424;6.788;2023-08-06T02:49:30;16.00;99.90
7846;DHT22;3968;51.424;6.788;2023-08-06T02:51:56;15.90;99.90
7846;DHT22;3968;51.424;6.788;2023-08-06T02:54:22;15.90;99.90
7846;DHT22;3968;51.424;6.788;2023-08-06T02:56:47;15.90;99.90
7846;DHT22;3968;51.424;6.788;2023-08-06T02:59:13;15.90;99.90
7846;DHT22;3968;51.424;6.788;2023-08-06T03:01:39;15.90;99.90
7846;DHT22;3968;51.424;6.788;2023-08-06T03:04:05;15.90;99.90
7846;DHT22;3968;51.424;6.788;2023-08-06T03:06:31;15.90;99.90
7846;DHT22;3968;51.424;6.788;2023-08-06T03:08:57;15.90;99.90
7846;DHT22;3968;51.424;6.788;2023-08-06T03:11:22;15.90;99.90
7846;DHT22;3968;51.424;6.788;2023-08-06T03:13:48;15.80;99.90
7846;DHT22;3968;51.424;6.788;2023-08-06T03:16:14;15.70;99.90
7846;DHT22;3968;51.424;6.788;2023-08-06T03:18:39;15.70;99.90
7846;DHT22;3968;51.424;6.788;2023-08-06T03:21:05;15.80;99.90
7846;DHT22;3968;51.424;6.788;2023-08-06T03:23:31;15.70;99.90
7846;DHT22;3968;51.424;6.788;2023-08-06T03:26:00;15.80;99.90
7846;DHT22;3968;51.424;6.788;2023-08-06T03:28:26;15.80;99.90
7846;DHT22;3968;51.424;6.788;2023-08-06T03:30:59;15.80;99.90
7846;DHT22;3968;51.424;6.788;2023-08-06T03:33:25;15.80;99.90
7846;DHT22;3968;51.424;6.788;2023-08-06T03:35:51;15.80;99.90
7846;DHT22;3968;51.424;6.788;2023-08-06T03:38:16;15.80;99.90
7846;DHT22;3968;51.424;6.788;2023-08-06T03:40:42;15.80;99.90
7846;DHT22;3968;51.424;6.788;2023-08-06T03:43:08;15.80;99.90
7846;DHT22;3968;51.424;6.788;2023-08-06T03:45:34;15.80;99.90
7846;DHT22;3968;51.424;6.788;2023-08-06T03:47:59;15.80;99.90
7846;DHT22;3968;51.424;6.788;2023-08-06T03:50:25;15.90;99.90
7846;DHT22;3968;51.424;6.788;2023-08-06T03:52:51;15.80;99.90
7846;DHT22;3968;51.424;6.788;2023-08-06T03:55:16;15.80;99.90
7846;DHT22;3968;51.424;6.788;2023-08-06T03:57:42;15.80;99.90
7846;DHT22;3968;51.424;6.788;2023-08-06T04:00:08;15.80;99.90
7846;DHT22;3968;51.424;6.788;2023-08-06T04:02:33;15.90;99.90
7846;DHT22;3968;51.424;6.788;2023-08-06T04:05:00;15.90;99.90
7846;DHT22;3968;51.424;6.788;2023-08-06T04:07:26;15.80;99.90
7846;DHT22;3968;51.424;6.788;2023-08-06T04:10:00;15.90;99.90
7846;DHT22;3968;51.424;6.788;2023-08-06T04:12:26;15.90;99.90
7846;DHT22;3968;51.424;6.788;2023-08-06T04:14:52;15.90;99.90
7846;DHT22;3968;51.424;6.788;2023-08-06T04:17:19;15.90;99.90
7846;DHT22;3968;51.424;6.788;2023-08-06T04:19:51;15.80;99.90
7846;DHT22;3968;51.424;6.788;2023-08-06T04:22:17;15.90;99.90
7846;DHT22;3968;51.424;6.788;2023-08-06T04:24:43;15.80;99.90
7846;DHT22;3968;51.424;6.788;2023-08-06T04:27:12;15.90;99.90
7846;DHT22;3968;51.424;6.788;2023-08-06T04:29:38;15.90;99.90
7846;DHT22;3968;51.424;6.788;2023-08-06T04:32:07;15.80;99.90
7846;DHT22;3968;51.424;6.788;2023-08-06T04:34:34;15.80;99.90
7846;DHT22;3968;51.424;6.788;2023-08-06T04:37:00;15.90;99.90
7846;DHT22;3968;51.424;6.788;2023-08-06T04:39:26;15.90;99.90
7846;DHT22;3968;51.424;6.788;2023-08-06T04:41:51;15.90;99.90
7846;DHT22;3968;51.424;6.788;2023-08-06T04:44:17;16.00;99.90
7846;DHT22;3968;51.424;6.788;2023-08-06T04:46:42;15.90;99.90
7846;DHT22;3968;51.424;6.788;2023-08-06T04:49:08;16.00;99.90
7846;DHT22;3968;51.424;6.788;2023-08-06T04:51:34;16.00;99.90
7846;DHT22;3968;51.424;6.788;2023-08-06T04:53:59;16.00;99.90
7846;DHT22;3968;51.424;6.788;2023-08-06T04:56:25;16.00;99.90
7846;DHT22;3968;51.424;6.788;2023-08-06T04:58:50;16.00;99.90
7846;DHT22;3968;51.424;6.788;2023-08-06T05:01:16;16.00;99.90
7846;DHT22;3968;51.424;6.788;2023-08-06T05:03:42;16.10;99.90
7846;DHT22;3968;51.424;6.788;2023-08-06T05:06:08;16.00;99.90
7846;DHT22;3968;51.424;6.788;2023-08-06T05:08:33;16.10;99.90
7846;DHT22;3968;51.424;6.788;2023-08-06T05:10:59;16.00;99.90
7846;DHT22;3968;51.424;6.788;2023-08-06T05:13:25;16.00;99.90
7846;DHT22;3968;51.424;6.788;2023-08-06T05:15:51;16.10;99.90
7846;DHT22;3968;51.424;6.788;2023-08-06T05:18:18;16.10;99.90
7846;DHT22;3968;51.424;6.788;2023-08-06T05:20:44;16.20;99.90
7846;DHT22;3968;51.424;6.788;2023-08-06T05:23:09;16.20;99.90
7846;DHT22;3968;51.424;6.788;2023-08-06T05:25:35;16.20;99.90
7846;DHT22;3968;51.424;6.788;2023-08-06T05:28:01;16.20;99.90
7846;DHT22;3968;51.424;6.788;2023-08-06T05:30:27;16.30;99.90
7846;DHT22;3968;51.424;6.788;2023-08-06T05:32:53;16.30;99.90
7846;DHT22;3968;51.424;6.788;2023-08-06T05:35:19;16.30;99.90
7846;DHT22;3968;51.424;6.788;2023-08-06T05:37:44;16.30;99.90
7846;DHT22;3968;51.424;6.788;2023-08-06T05:40:10;16.40;99.90
7846;DHT22;3968;51.424;6.788;2023-08-06T05:42:35;16.30;99.90
7846;DHT22;3968;51.424;6.788;2023-08-06T05:45:01;16.40;99.90
7846;DHT22;3968;51.424;6.788;2023-08-06T05:47:26;16.40;99.90
7846;DHT22;3968;51.424;6.788;2023-08-06T05:49:52;16.60;99.90
7846;DHT22;3968;51.424;6.788;2023-08-06T05:52:18;16.60;99.90
7846;DHT22;3968;51.424;6.788;2023-08-06T05:54:43;16.60;99.90
7846;DHT22;3968;51.424;6.788;2023-08-06T05:57:09;16.70;99.90
7846;DHT22;3968;51.424;6.788;2023-08-06T05:59:35;16.60;99.90
7846;DHT22;3968;51.424;6.788;2023-08-06T06:02:00;16.70;99.90
7846;DHT22;3968;51.424;6.788;2023-08-06T06:04:26;16.70;99.90
7846;DHT22;3968;51.424;6.788;2023-08-06T06:06:51;16.80;99.90
7846;DHT22;3968;51.424;6.788;2023-08-06T06:09:17;16.70;99.90
7846;DHT22;3968;51.424;6.788;2023-08-06T06:11:42;16.80;99.90
7846;DHT22;3968;51.424;6.788;2023-08-06T06:14:08;16.80;99.90
7846;DHT22;3968;51.424;6.788;2023-08-06T06:16:34;16.80;99.90
7846;DHT22;3968;51.424;6.788;2023-08-06T06:18:59;16.90;99.90
7846;DHT22;3968;51.424;6.788;2023-08-06T06:21:25;16.90;99.90
7846;DHT22;3968;51.424;6.788;2023-08-06T06:23:51;17.00;99.90
7846;DHT22;3968;51.424;6.788;2023-08-06T06:26:18;17.00;99.90
7846;DHT22;3968;51.424;6.788;2023-08-06T06:28:43;17.00;99.90
7846;DHT22;3968;51.424;6.788;2023-08-06T06:31:09;17.00;99.90
7846;DHT22;3968;51.424;6.788;2023-08-06T06:33:34;17.10;99.90
7846;DHT22;3968;51.424;6.788;2023-08-06T06:36:00;17.00;99.90
7846;DHT22;3968;51.424;6.788;2023-08-06T06:38:28;17.00;99.90
7846;DHT22;3968;51.424;6.788;2023-08-06T06:40:57;17.00;99.90
7846;DHT22;3968;51.424;6.788;2023-08-06T06:43:23;17.10;99.90
7846;DHT22;3968;51.424;6.788;2023-08-06T06:46:01;17.10;99.90
7846;DHT22;3968;51.424;6.788;2023-08-06T06:48:28;17.10;99.90
7846;DHT22;3968;51.424;6.788;2023-08-06T06:50:55;17.10;99.90
7846;DHT22;3968;51.424;6.788;2023-08-06T06:53:20;17.20;99.90
7846;DHT22;3968;51.424;6.788;2023-08-06T06:55:48;17.20;99.90
7846;DHT22;3968;51.424;6.788;2023-08-06T06:58:15;17.10;99.90
7846;DHT22;3968;51.424;6.788;2023-08-06T07:00:42;17.20;99.90
7846;DHT22;3968;51.424;6.788;2023-08-06T07:03:07;17.20;99.90
7846;DHT22;3968;51.424;6.788;2023-08-06T07:05:33;17.20;99.90
7846;DHT22;3968;51.424;6.788;2023-08-06T07:07:58;17.20;99.90
7846;DHT22;3968;51.424;6.788;2023-08-06T07:10:25;17.30;99.90
7846;DHT22;3968;51.424;6.788;2023-08-06T07:12:51;17.20;99.90
7846;DHT22;3968;51.424;6.788;2023-08-06T07:15:16;17.30;99.90
7846;DHT22;3968;51.424;6.788;2023-08-06T07:17:43;17.40;99.90
7846;DHT22;3968;51.424;6.788;2023-08-06T07:20:09;17.40;99.90
7846;DHT22;3968;51.424;6.788;2023-08-06T07:22:35;17.40;99.90
7846;DHT22;3968;51.424;6.788;2023-08-06T07:25:01;17.50;99.90
7846;DHT22;3968;51.424;6.788;2023-08-06T07:27:27;17.50;99.90
7846;DHT22;3968;51.424;6.788;2023-08-06T07:29:52;17.60;99.90
7846;DHT22;3968;51.424;6.788;2023-08-06T07:32:18;17.60;99.90
7846;DHT22;3968;51.424;6.788;2023-08-06T07:34:44;17.60;99.90
7846;DHT22;3968;51.424;6.788;2023-08-06T07:37:09;17.70;99.90
7846;DHT22;3968;51.424;6.788;2023-08-06T07:39:35;17.80;99.90
7846;DHT22;3968;51.424;6.788;2023-08-06T07:42:03;17.80;99.90
7846;DHT22;3968;51.424;6.788;2023-08-06T07:44:31;17.90;99.90
7846;DHT22;3968;51.424;6.788;2023-08-06T07:46:56;18.00;99.90
7846;DHT22;3968;51.424;6.788;2023-08-06T07:49:22;18.10;99.90
7846;DHT22;3968;51.424;6.788;2023-08-06T07:51:47;18.20;99.90
7846;DHT22;3968;51.424;6.788;2023-08-06T07:54:13;18.40;99.90
7846;DHT22;3968;51.424;6.788;2023-08-06T07:56:39;18.40;99.90
7846;DHT22;3968;51.424;6.788;2023-08-06T07:59:04;18.50;99.90
7846;DHT22;3968;51.424;6.788;2023-08-06T08:01:30;18.50;99.90
7846;DHT22;3968;51.424;6.788;2023-08-06T08:03:55;18.50;99.90
7846;DHT22;3968;51.424;6.788;2023-08-06T08:06:21;18.40;99.90
7846;DHT22;3968;51.424;6.788;2023-08-06T08:08:47;18.30;99.90
7846;DHT22;3968;51.424;6.788;2023-08-06T08:11:13;18.30;99.90
7846;DHT22;3968;51.424;6.788;2023-08-06T08:13:39;18.20;99.90
7846;DHT22;3968;51.424;6.788;2023-08-06T08:16:05;18.20;99.90
7846;DHT22;3968;51.424;6.788;2023-08-06T08:18:30;18.10;99.90
7846;DHT22;3968;51.424;6.788;2023-08-06T08:20:57;18.10;99.90
7846;DHT22;3968;51.424;6.788;2023-08-06T08:23:22;18.10;99.90
7846;DHT22;3968;51.424;6.788;2023-08-06T08:25:48;18.10;99.90
7846;DHT22;3968;51.424;6.788;2023-08-06T08:28:13;18.00;99.90
7846;DHT22;3968;51.424;6.788;2023-08-06T08:30:41;17.90;99.90
7846;DHT22;3968;51.424;6.788;2023-08-06T08:33:06;17.90;99.90
7846;DHT22;3968;51.424;6.788;2023-08-06T08:35:33;17.90;99.90
7846;DHT22;3968;51.424;6.788;2023-08-06T08:37:59;17.90;99.90
7846;DHT22;3968;51.424;6.788;2023-08-06T08:40:30;17.80;99.90
7846;DHT22;3968;51.424;6.788;2023-08-06T08:42:57;17.90;99.90
7846;DHT22;3968;51.424;6.788;2023-08-06T08:45:26;17.90;99.90
7846;DHT22;3968;51.424;6.788;2023-08-06T08:47:53;17.90;99.90
7846;DHT22;3968;51.424;6.788;2023-08-06T08:50:19;17.90;99.90
7846;DHT22;3968;51.424;6.788;2023-08-06T08:52:45;17.80;99.90
7846;DHT22;3968;51.424;6.788;2023-08-06T08:55:12;17.80;99.90
7846;DHT22;3968;51.424;6.788;2023-08-06T08:57:39;17.80;99.90
7846;DHT22;3968;51.424;6.788;2023-08-06T09:00:05;17.80;99.90
7846;DHT22;3968;51.424;6.788;2023-08-06T09:02:32;17.80;99.90
7846;DHT22;3968;51.424;6.788;2023-08-06T09:05:00;17.80;99.90
7846;DHT22;3968;51.424;6.788;2023-08-06T09:07:34;17.70;99.90
7846;DHT22;3968;51.424;6.788;2023-08-06T09:10:02;17.80;99.90
7846;DHT22;3968;51.424;6.788;2023-08-06T09:12:31;17.80;99.90
7846;DHT22;3968;51.424;6.788;2023-08-06T09:14:57;17.80;99.90
7846;DHT22;3968;51.424;6.788;2023-08-06T09:17:23;17.80;99.90
7846;DHT22;3968;51.424;6.788;2023-08-06T09:19:49;17.90;99.90
7846;DHT22;3968;51.424;6.788;2023-08-06T09:22:15;17.90;99.90
7846;DHT22;3968;51.424;6.788;2023-08-06T09:24:41;17.90;99.90
7846;DHT22;3968;51.424;6.788;2023-08-06T09:27:14;18.00;99.90
7846;DHT22;3968;51.424;6.788;2023-08-06T09:29:44;18.00;99.90
7846;DHT22;3968;51.424;6.788;2023-08-06T09:32:11;18.10;99.90
7846;DHT22;3968;51.424;6.788;2023-08-06T09:34:39;18.20;99.90
7846;DHT22;3968;51.424;6.788;2023-08-06T09:37:06;18.30;99.90
7846;DHT22;3968;51.424;6.788;2023-08-06T09:39:31;18.40;99.90
7846;DHT22;3968;51.424;6.788;2023-08-06T09:41:59;18.50;99.90
7846;DHT22;3968;51.424;6.788;2023-08-06T09:44:26;18.60;99.90
7846;DHT22;3968;51.424;6.788;2023-08-06T09:46:54;18.60;99.90
7846;DHT22;3968;51.424;6.788;2023-08-06T09:49:25;18.70;99.90
7846;DHT22;3968;51.424;6.788;2023-08-06T09:51:51;18.70;99.90
7846;DHT22;3968;51.424;6.788;2023-08-06T09:54:17;18.80;99.90
7846;DHT22;3968;51.424;6.788;2023-08-06T09:56:44;18.90;99.90
7846;DHT22;3968;51.424;6.788;2023-08-06T09:59:10;19.00;99.90
7846;DHT22;3968;51.424;6.788;2023-08-06T10:01:39;19.00;99.90
7846;DHT22;3968;51.424;6.788;2023-08-06T10:04:05;19.10;99.90
7846;DHT22;3968;51.424;6.788;2023-08-06T10:06:34;19.10;99.90
7846;DHT22;3968;51.424;6.788;2023-08-06T10:09:03;19.10;99.90
7846;DHT22;3968;51.424;6.788;2023-08-06T10:11:30;19.20;99.90
7846;DHT22;3968;51.424;6.788;2023-08-06T10:14:02;19.30;99.90
7846;DHT22;3968;51.424;6.788;2023-08-06T10:16:30;19.40;99.90
7846;DHT22;3968;51.424;6.788;2023-08-06T10:18:56;19.50;99.90
7846;DHT22;3968;51.424;6.788;2023-08-06T10:21:24;19.60;99.90
7846;DHT22;3968;51.424;6.788;2023-08-06T10:23:54;19.60;99.90
7846;DHT22;3968;51.424;6.788;2023-08-06T10:26:20;19.60;99.90
7846;DHT22;3968;51.424;6.788;2023-08-06T10:28:45;19.60;99.90
7846;DHT22;3968;51.424;6.788;2023-08-06T10:31:11;19.60;99.90
7846;DHT22;3968;51.424;6.788;2023-08-06T10:33:47;19.70;99.90
7846;DHT22;3968;51.424;6.788;2023-08-06T10:36:14;19.60;99.90
7846;DHT22;3968;51.424;6.788;2023-08-06T10:38:48;19.60;99.90
7846;DHT22;3968;51.424;6.788;2023-08-06T10:41:29;19.60;99.90
7846;DHT22;3968;51.424;6.788;2023-08-06T10:44:10;19.70;99.90
7846;DHT22;3968;51.424;6.788;2023-08-06T10:46:37;19.70;99.90
7846;DHT22;3968;51.424;6.788;2023-08-06T10:49:04;19.60;99.90
7846;DHT22;3968;51.424;6.788;2023-08-06T10:51:30;19.60;99.90
7846;DHT22;3968;51.424;6.788;2023-08-06T10:53:56;19.30;99.90
7846;DHT22;3968;51.424;6.788;2023-08-06T10:56:24;19.00;99.90
7846;DHT22;3968;51.424;6.788;2023-08-06T10:58:56;18.60;99.90
7846;DHT22;3968;51.424;6.788;2023-08-06T11:01:23;18.30;99.90
7846;DHT22;3968;51.424;6.788;2023-08-06T11:03:49;18.00;99.90
7846;DHT22;3968;51.424;6.788;2023-08-06T11:06:22;17.80;99.90
7846;DHT22;3968;51.424;6.788;2023-08-06T11:08:57;17.60;99.90
7846;DHT22;3968;51.424;6.788;2023-08-06T11:11:23;17.40;99.90
7846;DHT22;3968;51.424;6.788;2023-08-06T11:13:51;17.20;99.90
7846;DHT22;3968;51.424;6.788;2023-08-06T11:16:19;17.00;99.90
7846;DHT22;3968;51.424;6.788;2023-08-06T11:18:45;16.90;99.90
7846;DHT22;3968;51.424;6.788;2023-08-06T11:21:11;16.60;99.90
7846;DHT22;3968;51.424;6.788;2023-08-06T11:23:40;16.50;99.90
7846;DHT22;3968;51.424;6.788;2023-08-06T11:26:07;16.50;99.90
7846;DHT22;3968;51.424;6.788;2023-08-06T11:28:33;16.40;99.90
7846;DHT22;3968;51.424;6.788;2023-08-06T11:30:59;16.40;99.90
7846;DHT22;3968;51.424;6.788;2023-08-06T11:33:28;16.30;99.90
7846;DHT22;3968;51.424;6.788;2023-08-06T11:35:58;16.30;99.90
7846;DHT22;3968;51.424;6.788;2023-08-06T11:38:25;16.20;99.90
7846;DHT22;3968;51.424;6.788;2023-08-06T11:40:52;16.20;99.90
7846;DHT22;3968;51.424;6.788;2023-08-06T11:43:19;16.20;99.90
7846;DHT22;3968;51.424;6.788;2023-08-06T11:45:46;16.20;99.90
7846;DHT22;3968;51.424;6.788;2023-08-06T11:48:12;16.10;99.90
7846;DHT22;3968;51.424;6.788;2023-08-06T11:50:38;16.10;99.90
7846;DHT22;3968;51.424;6.788;2023-08-06T11:53:06;16.10;99.90
7846;DHT22;3968;51.424;6.788;2023-08-06T11:55:32;16.00;99.90
7846;DHT22;3968;51.424;6.788;2023-08-06T11:58:02;16.10;99.90
7846;DHT22;3968;51.424;6.788;2023-08-06T12:00:29;16.10;99.90
7846;DHT22;3968;51.424;6.788;2023-08-06T12:02:56;16.00;99.90
7846;DHT22;3968;51.424;6.788;2023-08-06T12:05:23;16.00;99.90
7846;DHT22;3968;51.424;6.788;2023-08-06T12:07:55;15.90;99.90
7846;DHT22;3968;51.424;6.788;2023-08-06T12:10:22;16.00;99.90
7846;DHT22;3968;51.424;6.788;2023-08-06T12:12:48;16.00;99.90
7846;DHT22;3968;51.424;6.788;2023-08-06T12:15:14;16.10;99.90
7846;DHT22;3968;51.424;6.788;2023-08-06T12:17:40;16.00;99.90
7846;DHT22;3968;51.424;6.788;2023-08-06T12:20:06;16.10;99.90
7846;DHT22;3968;51.424;6.788;2023-08-06T12:22:33;16.10;99.90
7846;DHT22;3968;51.424;6.788;2023-08-06T12:25:04;16.20;99.90
7846;DHT22;3968;51.424;6.788;2023-08-06T12:27:40;16.20;99.90
7846;DHT22;3968;51.424;6.788;2023-08-06T12:30:06;16.30;99.90
7846;DHT22;3968;51.424;6.788;2023-08-06T12:32:33;16.30;99.90
7846;DHT22;3968;51.424;6.788;2023-08-06T12:34:59;16.40;99.90
7846;DHT22;3968;51.424;6.788;2023-08-06T12:37:25;16.40;99.90
7846;DHT22;3968;51.424;6.788;2023-08-06T12:39:51;16.40;99.90
7846;DHT22;3968;51.424;6.788;2023-08-06T12:42:17;16.30;99.90
7846;DHT22;3968;51.424;6.788;2023-08-06T12:44:43;16.40;99.90
7846;DHT22;3968;51.424;6.788;2023-08-06T12:47:08;16.30;99.90
7846;DHT22;3968;51.424;6.788;2023-08-06T12:49:34;16.30;99.90
7846;DHT22;3968;51.424;6.788;2023-08-06T12:52:00;16.30;99.90
7846;DHT22;3968;51.424;6.788;2023-08-06T12:54:26;16.40;99.90
7846;DHT22;3968;51.424;6.788;2023-08-06T12:56:52;16.30;99.90
7846;DHT22;3968;51.424;6.788;2023-08-06T12:59:18;16.30;99.90
7846;DHT22;3968;51.424;6.788;2023-08-06T13:01:44;16.30;99.90
7846;DHT22;3968;51.424;6.788;2023-08-06T13:04:10;16.40;99.90
7846;DHT22;3968;51.424;6.788;2023-08-06T13:06:37;16.30;99.90
7846;DHT22;3968;51.424;6.788;2023-08-06T13:09:04;16.30;99.90
7846;DHT22;3968;51.424;6.788;2023-08-06T13:11:31;16.30;99.90
7846;DHT22;3968;51.424;6.788;2023-08-06T13:14:05;16.30;99.90
7846;DHT22;3968;51.424;6.788;2023-08-06T13:16:31;16.20;99.90
7846;DHT22;3968;51.424;6.788;2023-08-06T13:18:57;16.30;99.90
7846;DHT22;3968;51.424;6.788;2023-08-06T13:21:22;16.30;99.90
7846;DHT22;3968;51.424;6.788;2023-08-06T13:23:48;16.30;99.90
7846;DHT22;3968;51.424;6.788;2023-08-06T13:26:14;16.40;99.90
7846;DHT22;3968;51.424;6.788;2023-08-06T13:28:41;16.30;99.90
7846;DHT22;3968;51.424;6.788;2023-08-06T13:31:07;16.30;99.90
7846;DHT22;3968;51.424;6.788;2023-08-06T13:33:33;16.40;99.90
7846;DHT22;3968;51.424;6.788;2023-08-06T13:35:58;16.50;99.90
7846;DHT22;3968;51.424;6.788;2023-08-06T13:38:24;16.60;99.90
7846;DHT22;3968;51.424;6.788;2023-08-06T13:40:49;16.70;99.90
7846;DHT22;3968;51.424;6.788;2023-08-06T13:43:15;16.70;99.90
7846;DHT22;3968;51.424;6.788;2023-08-06T13:45:42;16.80;99.90
7846;DHT22;3968;51.424;6.788;2023-08-06T13:48:08;16.90;99.90
7846;DHT22;3968;51.424;6.788;2023-08-06T13:50:36;16.90;99.90
7846;DHT22;3968;51.424;6.788;2023-08-06T13:53:02;17.10;99.90
7846;DHT22;3968;51.424;6.788;2023-08-06T13:55:27;17.30;99.90
7846;DHT22;3968;51.424;6.788;2023-08-06T13:57:53;17.20;99.90
7846;DHT22;3968;51.424;6.788;2023-08-06T14:00:19;17.20;99.90
7846;DHT22;3968;51.424;6.788;2023-08-06T14:02:44;17.20;99.90
7846;DHT22;3968;51.424;6.788;2023-08-06T14:05:10;17.20;99.90
7846;DHT22;3968;51.424;6.788;2023-08-06T14:07:35;17.20;99.90
7846;DHT22;3968;51.424;6.788;2023-08-06T14:10:01;17.10;99.90
7846;DHT22;3968;51.424;6.788;2023-08-06T14:12:27;17.20;99.90
7846;DHT22;3968;51.424;6.788;2023-08-06T14:14:52;17.20;99.90
7846;DHT22;3968;51.424;6.788;2023-08-06T14:17:18;17.30;99.90
7846;DHT22;3968;51.424;6.788;2023-08-06T14:19:44;17.40;99.90
7846;DHT22;3968;51.424;6.788;2023-08-06T14:22:09;17.40;99.90
7846;DHT22;3968;51.424;6.788;2023-08-06T14:24:35;17.40;99.90
7846;DHT22;3968;51.424;6.788;2023-08-06T14:27:00;17.40;99.90
7846;DHT22;3968;51.424;6.788;2023-08-06T14:29:26;17.30;99.90
7846;DHT22;3968;51.424;6.788;2023-08-06T14:31:52;17.40;99.90
7846;DHT22;3968;51.424;6.788;2023-08-06T14:34:17;17.30;99.90
7846;DHT22;3968;51.424;6.788;2023-08-06T14:36:43;17.30;99.90
7846;DHT22;3968;51.424;6.788;2023-08-06T14:39:08;17.30;99.90
7846;DHT22;3968;51.424;6.788;2023-08-06T14:41:34;17.20;99.90
7846;DHT22;3968;51.424;6.788;2023-08-06T14:43:59;17.30;99.90
7846;DHT22;3968;51.424;6.788;2023-08-06T14:46:25;17.30;99.90
7846;DHT22;3968;51.424;6.788;2023-08-06T14:48:51;17.40;99.90
7846;DHT22;3968;51.424;6.788;2023-08-06T14:51:17;17.40;99.90
7846;DHT22;3968;51.424;6.788;2023-08-06T14:53:44;17.60;99.90
7846;DHT22;3968;51.424;6.788;2023-08-06T14:56:10;17.70;99.90
7846;DHT22;3968;51.424;6.788;2023-08-06T14:58:36;17.80;99.90
7846;DHT22;3968;51.424;6.788;2023-08-06T15:01:02;18.00;99.90
7846;DHT22;3968;51.424;6.788;2023-08-06T15:03:27;18.00;99.90
7846;DHT22;3968;51.424;6.788;2023-08-06T15:05:54;18.00;99.90
7846;DHT22;3968;51.424;6.788;2023-08-06T15:08:19;18.00;99.90
7846;DHT22;3968;51.424;6.788;2023-08-06T15:10:56;17.90;99.90
7846;DHT22;3968;51.424;6.788;2023-08-06T15:13:22;17.90;99.90
7846;DHT22;3968;51.424;6.788;2023-08-06T15:15:51;18.00;99.90
7846;DHT22;3968;51.424;6.788;2023-08-06T15:18:16;18.00;99.90
7846;DHT22;3968;51.424;6.788;2023-08-06T15:20:42;18.10;99.90
7846;DHT22;3968;51.424;6.788;2023-08-06T15:23:07;18.00;99.90
7846;DHT22;3968;51.424;6.788;2023-08-06T15:25:33;17.90;99.90
7846;DHT22;3968;51.424;6.788;2023-08-06T15:28:00;17.90;99.90
7846;DHT22;3968;51.424;6.788;2023-08-06T15:30:25;17.80;99.90
7846;DHT22;3968;51.424;6.788;2023-08-06T15:32:51;17.70;99.90
7846;DHT22;3968;51.424;6.788;2023-08-06T15:35:17;17.70;99.90
7846;DHT22;3968;51.424;6.788;2023-08-06T15:37:42;17.70;99.90
7846;DHT22;3968;51.424;6.788;2023-08-06T15:40:08;17.80;99.90
7846;DHT22;3968;51.424;6.788;2023-08-06T15:42:34;17.80;99.90
7846;DHT22;3968;51.424;6.788;2023-08-06T15:45:00;17.70;99.90
7846;DHT22;3968;51.424;6.788;2023-08-06T15:47:27;17.70;99.90
7846;DHT22;3968;51.424;6.788;2023-08-06T15:49:52;17.70;99.90
7846;DHT22;3968;51.424;6.788;2023-08-06T15:52:18;17.60;99.90
7846;DHT22;3968;51.424;6.788;2023-08-06T15:54:44;17.60;99.90
7846;DHT22;3968;51.424;6.788;2023-08-06T15:57:09;17.50;99.90
7846;DHT22;3968;51.424;6.788;2023-08-06T15:59:35;17.40;99.90
7846;DHT22;3968;51.424;6.788;2023-08-06T16:02:01;17.40;99.90
7846;DHT22;3968;51.424;6.788;2023-08-06T16:04:32;17.20;99.90
7846;DHT22;3968;51.424;6.788;2023-08-06T16:07:00;17.20;99.90